sensor_id;sensor_type;location;lat;lon;timestamp;temperature;humidity
51950;DHT22;37974;53.218;6.640;2022-08-07T00:00:27;12.10;99.90
51950;DHT22;37974;53.218;6.640;2022-08-07T00:02:53;12.10;99.90
51950;DHT22;37974;53.218;6.640;2022-08-07T00:05:21;12.10;99.90
51950;DHT22;37974;53.218;6.640;2022-08-07T00:07:47;12.10;99.90
51950;DHT22;37974;53.218;6.640;2022-08-07T00:10:13;12.10;99.90
51950;DHT22;37974;53.218;6.640;2022-08-07T00:12:39;12.10;99.90
51950;DHT22;37974;53.218;6.640;2022-08-07T00:15:06;12.10;99.90
51950;DHT22;37974;53.218;6.640;2022-08-07T00:17:31;12.10;99.90
51950;DHT22;37974;53.218;6.640;2022-08-07T00:19:57;12.00;99.90
51950;DHT22;37974;53.218;6.640;2022-08-07T00:22:23;12.00;99.90
51950;DHT22;37974;53.218;6.640;2022-08-07T00:24:48;12.00;99.90
51950;DHT22;37974;53.218;6.640;2022-08-07T00:27:14;12.00;99.90
51950;DHT22;37974;53.218;6.640;2022-08-07T00:29:40;11.90;99.90
51950;DHT22;37974;53.218;6.640;2022-08-07T00:32:06;11.90;99.90
51950;DHT22;37974;53.218;6.640;2022-08-07T00:34:31;11.80;99.90
51950;DHT22;37974;53.218;6.640;2022-08-07T00:36:57;11.80;99.90
51950;DHT22;37974;53.218;6.640;2022-08-07T00:39:23;11.80;99.90
51950;DHT22;37974;53.218;6.640;2022-08-07T00:41:52;11.70;99.90
51950;DHT22;37974;53.218;6.640;2022-08-07T00:44:18;11.70;99.90
51950;DHT22;37974;53.218;6.640;2022-08-07T00:46:44;11.70;99.90
51950;DHT22;37974;53.218;6.640;2022-08-07T00:49:09;11.70;99.90
51950;DHT22;37974;53.218;6.640;2022-08-07T00:51:36;11.60;99.90
51950;DHT22;37974;53.218;6.640;2022-08-07T00:54:02;11.60;99.90
51950;DHT22;37974;53.218;6.640;2022-08-07T00:56:28;11.60;99.90
51950;DHT22;37974;53.218;6.640;2022-08-07T00:58:54;11.60;99.90
51950;DHT22;37974;53.218;6.640;2022-08-07T01:01:21;11.60;99.90
51950;DHT22;37974;53.218;6.640;2022-08-07T01:03:48;11.60;99.90
51950;DHT22;37974;53.218;6.640;2022-08-07T01:06:14;11.60;99.90
51950;DHT22;37974;53.218;6.640;2022-08-07T01:08:41;11.60;99.90
51950;DHT22;37974;53.218;6.640;2022-08-07T01:11:07;11.60;99.90
51950;DHT22;37974;53.218;6.640;2022-08-07T01:13:34;11.60;99.90
51950;DHT22;37974;53.218;6.640;2022-08-07T01:16:00;11.60;99.90
51950;DHT22;37974;53.218;6.640;2022-08-07T01:18:26;11.70;99.90
51950;DHT22;37974;53.218;6.640;2022-08-07T01:21:08;11.70;99.90
51950;DHT22;37974;53.218;6.640;2022-08-07T01:23:34;11.70;99.90
51950;DHT22;37974;53.218;6.640;2022-08-07T01:26:02;11.70;99.90
51950;DHT22;37974;53.218;6.640;2022-08-07T01:28:28;11.70;99.90
51950;DHT22;37974;53.218;6.640;2022-08-07T01:30:55;11.70;99.90
51950;DHT22;37974;53.218;6.640;2022-08-07T01:33:22;11.60;99.90
51950;DHT22;37974;53.218;6.640;2022-08-07T01:35:48;11.70;99.90
51950;DHT22;37974;53.218;6.640;2022-08-07T01:38:14;11.60;99.90
51950;DHT22;37974;53.218;6.640;2022-08-07T01:40:42;11.60;99.90
51950;DHT22;37974;53.218;6.640;2022-08-07T01:43:08;11.50;99.90
51950;DHT22;37974;53.218;6.640;2022-08-07T01:45:34;11.60;99.90
51950;DHT22;37974;53.218;6.640;2022-08-07T01:48:00;11.60;99.90
51950;DHT22;37974;53.218;6.640;2022-08-07T01:50:26;11.50;99.90
51950;DHT22;37974;53.218;6.640;2022-08-07T01:52:54;11.50;99.90
51950;DHT22;37974;53.218;6.640;2022-08-07T01:55:26;11.50;99.90
51950;DHT22;37974;53.218;6.640;2022-08-07T01:57:56;11.40;99.90
51950;DHT22;37974;53.218;6.640;2022-08-07T02:00:25;11.40;99.90
51950;DHT22;37974;53.218;6.640;2022-08-07T02:03:00;11.40;99.90
51950;DHT22;37974;53.218;6.640;2022-08-07T02:05:49;11.40;99.90
51950;DHT22;37974;53.218;6.640;2022-08-07T02:08:18;11.40;99.90
51950;DHT22;37974;53.218;6.640;2022-08-07T02:10:47;11.50;99.90
51950;DHT22;37974;53.218;6.640;2022-08-07T02:13:19;11.50;99.90
51950;DHT22;37974;53.218;6.640;2022-08-07T02:15:46;11.60;99.90
51950;DHT22;37974;53.218;6.640;2022-08-07T02:18:13;11.60;99.90
51950;DHT22;37974;53.218;6.640;2022-08-07T02:20:41;11.60;99.90
51950;DHT22;37974;53.218;6.640;2022-08-07T02:23:09;11.60;99.90
51950;DHT22;37974;53.218;6.640;2022-08-07T02:25:36;11.60;99.90
51950;DHT22;37974;53.218;6.640;2022-08-07T02:28:03;11.50;99.90
51950;DHT22;37974;53.218;6.640;2022-08-07T02:30:32;11.40;99.90
51950;DHT22;37974;53.218;6.640;2022-08-07T02:32:59;11.40;99.90
51950;DHT22;37974;53.218;6.640;2022-08-07T02:35:27;11.30;99.90
51950;DHT22;37974;53.218;6.640;2022-08-07T02:37:56;11.20;99.90
51950;DHT22;37974;53.218;6.640;2022-08-07T02:40:22;11.20;99.90
51950;DHT22;37974;53.218;6.640;2022-08-07T02:42:49;11.10;99.90
51950;DHT22;37974;53.218;6.640;2022-08-07T02:45:17;11.10;99.90
51950;DHT22;37974;53.218;6.640;2022-08-07T02:47:44;11.00;99.90
51950;DHT22;37974;53.218;6.640;2022-08-07T02:50:10;11.00;99.90
51950;DHT22;37974;53.218;6.640;2022-08-07T02:52:45;11.00;99.90
51950;DHT22;37974;53.218;6.640;2022-08-07T02:55:18;10.90;99.90
51950;DHT22;37974;53.218;6.640;2022-08-07T02:57:45;10.80;99.90
51950;DHT22;37974;53.218;6.640;2022-08-07T03:00:12;10.80;99.90
51950;DHT22;37974;53.218;6.640;2022-08-07T03:02:41;10.80;99.90
51950;DHT22;37974;53.218;6.640;2022-08-07T03:05:10;10.70;99.90
51950;DHT22;37974;53.218;6.640;2022-08-07T03:07:37;10.70;99.90
51950;DHT22;37974;53.218;6.640;2022-08-07T03:10:04;10.70;99.90
51950;DHT22;37974;53.218;6.640;2022-08-07T03:12:31;10.60;99.90
51950;DHT22;37974;53.218;6.640;2022-08-07T03:14:58;10.60;99.90
51950;DHT22;37974;53.218;6.640;2022-08-07T03:17:25;10.60;99.90
51950;DHT22;37974;53.218;6.640;2022-08-07T03:19:51;10.60;99.90
51950;DHT22;37974;53.218;6.640;2022-08-07T03:22:18;10.60;99.90
51950;DHT22;37974;53.218;6.640;2022-08-07T03:24:44;10.60;99.90
51950;DHT22;37974;53.218;6.640;2022-08-07T03:27:10;10.60;99.90
51950;DHT22;37974;53.218;6.640;2022-08-07T03:29:39;10.60;99.90
51950;DHT22;37974;53.218;6.640;2022-08-07T03:32:07;10.60;99.90
51950;DHT22;37974;53.218;6.640;2022-08-07T03:34:37;10.60;99.90
51950;DHT22;37974;53.218;6.640;2022-08-07T03:37:04;10.50;99.90
51950;DHT22;37974;53.218;6.640;2022-08-07T03:39:33;10.60;99.90
51950;DHT22;37974;53.218;6.640;2022-08-07T03:42:01;10.60;99.90
51950;DHT22;37974;53.218;6.640;2022-08-07T03:44:27;10.60;99.90
51950;DHT22;37974;53.218;6.640;2022-08-07T03:46:54;10.60;99.90
51950;DHT22;37974;53.218;6.640;2022-08-07T03:49:19;10.70;99.90
51950;DHT22;37974;53.218;6.640;2022-08-07T03:51:49;10.70;99.90
51950;DHT22;37974;53.218;6.640;2022-08-07T03:54:16;10.70;99.90
51950;DHT22;37974;53.218;6.640;2022-08-07T03:56:42;10.60;99.90
51950;DHT22;37974;53.218;6.640;2022-08-07T03:59:11;10.60;99.90
51950;DHT22;37974;53.218;6.640;2022-08-07T04:01:41;10.60;99.90
51950;DHT22;37974;53.218;6.640;2022-08-07T04:04:07;10.60;99.90
51950;DHT22;37974;53.218;6.640;2022-08-07T04:06:35;10.60;99.90
51950;DHT22;37974;53.218;6.640;2022-08-07T04:09:02;10.60;99.90
51950;DHT22;37974;53.218;6.640;2022-08-07T04:11:28;10.60;99.90
51950;DHT22;37974;53.218;6.640;2022-08-07T04:13:56;10.60;99.90
51950;DHT22;37974;53.218;6.640;2022-08-07T04:16:22;10.60;99.90
51950;DHT22;37974;53.218;6.640;2022-08-07T04:18:48;10.60;99.90
51950;DHT22;37974;53.218;6.640;2022-08-07T04:21:15;10.60;99.90
51950;DHT22;37974;53.218;6.640;2022-08-07T04:23:41;10.60;99.90
51950;DHT22;37974;53.218;6.640;2022-08-07T04:26:07;10.60;99.90
51950;DHT22;37974;53.218;6.640;2022-08-07T04:28:33;10.60;99.90
51950;DHT22;37974;53.218;6.640;2022-08-07T04:30:59;10.60;99.90
51950;DHT22;37974;53.218;6.640;2022-08-07T04:33:25;10.60;99.90
51950;DHT22;37974;53.218;6.640;2022-08-07T04:35:52;10.60;99.90
51950;DHT22;37974;53.218;6.640;2022-08-07T04:38:18;10.60;99.90
51950;DHT22;37974;53.218;6.640;2022-08-07T04:40:45;10.70;99.90
51950;DHT22;37974;53.218;6.640;2022-08-07T04:43:14;10.70;99.90
51950;DHT22;37974;53.218;6.640;2022-08-07T04:46:02;10.70;99.90
51950;DHT22;37974;53.218;6.640;2022-08-07T04:49:17;10.80;99.90
51950;DHT22;37974;53.218;6.640;2022-08-07T04:59:38;10.90;99.90
51950;DHT22;37974;53.218;6.640;2022-08-07T05:02:13;10.90;99.90
51950;DHT22;37974;53.218;6.640;2022-08-07T05:07:22;11.00;99.90
51950;DHT22;37974;53.218;6.640;2022-08-07T05:10:01;11.00;99.90
51950;DHT22;37974;53.218;6.640;2022-08-07T05:12:41;11.10;99.90
51950;DHT22;37974;53.218;6.640;2022-08-07T05:15:15;11.20;99.90
51950;DHT22;37974;53.218;6.640;2022-08-07T05:17:45;11.30;99.90
51950;DHT22;37974;53.218;6.640;2022-08-07T05:20:15;11.30;99.90
51950;DHT22;37974;53.218;6.640;2022-08-07T05:22:43;11.50;99.90
51950;DHT22;37974;53.218;6.640;2022-08-07T05:25:11;11.50;99.90
51950;DHT22;37974;53.218;6.640;2022-08-07T05:27:39;11.60;99.90
51950;DHT22;37974;53.218;6.640;2022-08-07T05:30:05;11.70;99.90
51950;DHT22;37974;53.218;6.640;2022-08-07T05:32:31;11.80;99.90
51950;DHT22;37974;53.218;6.640;2022-08-07T05:34:57;11.90;99.90
51950;DHT22;37974;53.218;6.640;2022-08-07T05:37:24;12.00;99.90
51950;DHT22;37974;53.218;6.640;2022-08-07T05:39:51;12.10;99.90
51950;DHT22;37974;53.218;6.640;2022-08-07T05:42:17;12.20;99.90
51950;DHT22;37974;53.218;6.640;2022-08-07T05:44:42;12.40;99.90
51950;DHT22;37974;53.218;6.640;2022-08-07T05:47:10;12.50;99.90
51950;DHT22;37974;53.218;6.640;2022-08-07T05:49:36;12.60;99.90
51950;DHT22;37974;53.218;6.640;2022-08-07T05:52:02;12.80;99.90
51950;DHT22;37974;53.218;6.640;2022-08-07T05:54:29;12.90;99.90
51950;DHT22;37974;53.218;6.640;2022-08-07T05:56:55;13.00;99.90
51950;DHT22;37974;53.218;6.640;2022-08-07T05:59:22;13.20;99.90
51950;DHT22;37974;53.218;6.640;2022-08-07T06:01:49;13.30;99.90
51950;DHT22;37974;53.218;6.640;2022-08-07T06:04:18;13.40;99.90
51950;DHT22;37974;53.218;6.640;2022-08-07T06:06:45;13.60;99.90
51950;DHT22;37974;53.218;6.640;2022-08-07T06:09:14;13.60;99.90
51950;DHT22;37974;53.218;6.640;2022-08-07T06:11:41;13.80;99.90
51950;DHT22;37974;53.218;6.640;2022-08-07T06:14:07;13.90;99.90
51950;DHT22;37974;53.218;6.640;2022-08-07T06:16:33;14.00;99.90
51950;DHT22;37974;53.218;6.640;2022-08-07T06:19:00;14.10;99.90
51950;DHT22;37974;53.218;6.640;2022-08-07T06:21:28;14.30;99.90
51950;DHT22;37974;53.218;6.640;2022-08-07T06:23:54;14.40;99.90
51950;DHT22;37974;53.218;6.640;2022-08-07T06:26:23;14.50;99.90
51950;DHT22;37974;53.218;6.640;2022-08-07T06:28:51;14.70;99.90
51950;DHT22;37974;53.218;6.640;2022-08-07T06:31:17;14.80;99.90
51950;DHT22;37974;53.218;6.640;2022-08-07T06:33:46;14.90;99.90
51950;DHT22;37974;53.218;6.640;2022-08-07T06:36:12;15.00;99.90
51950;DHT22;37974;53.218;6.640;2022-08-07T06:38:39;15.20;99.90
51950;DHT22;37974;53.218;6.640;2022-08-07T06:41:10;15.40;99.90
51950;DHT22;37974;53.218;6.640;2022-08-07T06:43:38;15.50;99.90
51950;DHT22;37974;53.218;6.640;2022-08-07T06:46:05;15.60;99.90
51950;DHT22;37974;53.218;6.640;2022-08-07T06:48:31;15.70;99.90
51950;DHT22;37974;53.218;6.640;2022-08-07T06:50:59;15.80;99.90
51950;DHT22;37974;53.218;6.640;2022-08-07T06:53:26;15.90;99.90
51950;DHT22;37974;53.218;6.640;2022-08-07T06:56:09;16.10;99.90
51950;DHT22;37974;53.218;6.640;2022-08-07T07:01:41;16.30;99.90
51950;DHT22;37974;53.218;6.640;2022-08-07T07:07:55;16.50;99.90
51950;DHT22;37974;53.218;6.640;2022-08-07T07:11:08;16.70;99.90
51950;DHT22;37974;53.218;6.640;2022-08-07T07:28:09;17.30;99.90
51950;DHT22;37974;53.218;6.640;2022-08-07T07:30:47;17.40;99.90
51950;DHT22;37974;53.218;6.640;2022-08-07T07:34:04;17.50;99.90
51950;DHT22;37974;53.218;6.640;2022-08-07T07:36:38;17.60;99.90
51950;DHT22;37974;53.218;6.640;2022-08-07T07:39:21;17.80;99.90
51950;DHT22;37974;53.218;6.640;2022-08-07T07:42:53;17.80;99.90
51950;DHT22;37974;53.218;6.640;2022-08-07T07:46:20;17.90;99.90
51950;DHT22;37974;53.218;6.640;2022-08-07T07:49:30;18.00;99.90
51950;DHT22;37974;53.218;6.640;2022-08-07T07:52:40;18.10;99.90
51950;DHT22;37974;53.218;6.640;2022-08-07T07:55:27;18.20;99.90
51950;DHT22;37974;53.218;6.640;2022-08-07T07:58:47;18.20;99.90
51950;DHT22;37974;53.218;6.640;2022-08-07T08:02:16;18.30;99.90
51950;DHT22;37974;53.218;6.640;2022-08-07T08:05:16;18.40;99.90
51950;DHT22;37974;53.218;6.640;2022-08-07T08:08:10;18.50;99.90
51950;DHT22;37974;53.218;6.640;2022-08-07T08:14:00;18.80;99.90
51950;DHT22;37974;53.218;6.640;2022-08-07T08:23:14;18.90;99.90
51950;DHT22;37974;53.218;6.640;2022-08-07T08:26:24;18.90;99.90
51950;DHT22;37974;53.218;6.640;2022-08-07T08:32:52;19.00;99.90
51950;DHT22;37974;53.218;6.640;2022-08-07T08:36:00;19.00;99.90
51950;DHT22;37974;53.218;6.640;2022-08-07T08:39:18;19.10;99.90
51950;DHT22;37974;53.218;6.640;2022-08-07T08:45:53;19.40;99.90
51950;DHT22;37974;53.218;6.640;2022-08-07T08:55:51;19.30;99.90
51950;DHT22;37974;53.218;6.640;2022-08-07T09:04:52;19.70;99.90
51950;DHT22;37974;53.218;6.640;2022-08-07T09:19:34;20.30;99.90
51950;DHT22;37974;53.218;6.640;2022-08-07T09:49:52;20.70;99.90
51950;DHT22;37974;53.218;6.640;2022-08-07T09:52:30;20.50;99.90
51950;DHT22;37974;53.218;6.640;2022-08-07T10:00:04;20.10;99.90
51950;DHT22;37974;53.218;6.640;2022-08-07T10:03:08;20.00;99.90
51950;DHT22;37974;53.218;6.640;2022-08-07T10:08:40;20.30;99.90
51950;DHT22;37974;53.218;6.640;2022-08-07T10:11:11;20.50;99.90
51950;DHT22;37974;53.218;6.640;2022-08-07T10:13:46;20.60;99.90
51950;DHT22;37974;53.218;6.640;2022-08-07T10:16:28;20.70;99.90
51950;DHT22;37974;53.218;6.640;2022-08-07T10:21:39;20.90;99.90
51950;DHT22;37974;53.218;6.640;2022-08-07T10:24:31;20.80;99.90
51950;DHT22;37974;53.218;6.640;2022-08-07T10:27:18;20.70;99.90
51950;DHT22;37974;53.218;6.640;2022-08-07T10:29:58;20.80;99.90
51950;DHT22;37974;53.218;6.640;2022-08-07T10:37:57;21.40;99.90
51950;DHT22;37974;53.218;6.640;2022-08-07T10:40:28;21.50;99.90
51950;DHT22;37974;53.218;6.640;2022-08-07T10:45:48;21.70;99.90
51950;DHT22;37974;53.218;6.640;2022-08-07T10:48:38;21.50;99.90
51950;DHT22;37974;53.218;6.640;2022-08-07T10:51:16;21.10;99.60
51950;DHT22;37974;53.218;6.640;2022-08-07T10:53:57;20.90;99.60
51950;DHT22;37974;53.218;6.640;2022-08-07T10:56:39;20.90;99.90
51950;DHT22;37974;53.218;6.640;2022-08-07T10:59:34;20.90;99.90
51950;DHT22;37974;53.218;6.640;2022-08-07T11:07:39;21.60;99.90
51950;DHT22;37974;53.218;6.640;2022-08-07T11:10:16;21.80;99.60
51950;DHT22;37974;53.218;6.640;2022-08-07T11:12:48;21.90;96.20
51950;DHT22;37974;53.218;6.640;2022-08-07T11:15:22;22.20;96.90
51950;DHT22;37974;53.218;6.640;2022-08-07T11:17:53;22.20;96.20
51950;DHT22;37974;53.218;6.640;2022-08-07T11:20:25;22.30;95.90
51950;DHT22;37974;53.218;6.640;2022-08-07T11:23:02;22.10;97.30
51950;DHT22;37974;53.218;6.640;2022-08-07T11:25:35;21.90;96.80
51950;DHT22;37974;53.218;6.640;2022-08-07T11:28:10;22.00;96.10
51950;DHT22;37974;53.218;6.640;2022-08-07T11:30:54;22.10;96.30
51950;DHT22;37974;53.218;6.640;2022-08-07T11:36:13;22.50;94.50
51950;DHT22;37974;53.218;6.640;2022-08-07T11:41:23;22.60;94.80
51950;DHT22;37974;53.218;6.640;2022-08-07T11:44:13;22.80;95.10
51950;DHT22;37974;53.218;6.640;2022-08-07T11:47:08;22.90;93.00
51950;DHT22;37974;53.218;6.640;2022-08-07T11:49:55;22.90;93.70
51950;DHT22;37974;53.218;6.640;2022-08-07T11:55:27;22.60;93.90
51950;DHT22;37974;53.218;6.640;2022-08-07T11:58:08;22.50;94.30
51950;DHT22;37974;53.218;6.640;2022-08-07T12:00:54;22.40;94.50
51950;DHT22;37974;53.218;6.640;2022-08-07T12:06:23;22.00;94.60
51950;DHT22;37974;53.218;6.640;2022-08-07T12:11:30;21.80;95.30
51950;DHT22;37974;53.218;6.640;2022-08-07T12:14:18;22.00;96.10
51950;DHT22;37974;53.218;6.640;2022-08-07T12:17:11;22.10;96.40
51950;DHT22;37974;53.218;6.640;2022-08-07T12:22:19;22.20;96.30
51950;DHT22;37974;53.218;6.640;2022-08-07T12:27:39;22.60;96.50
51950;DHT22;37974;53.218;6.640;2022-08-07T12:30:07;22.80;95.50
51950;DHT22;37974;53.218;6.640;2022-08-07T12:32:42;22.70;94.90
51950;DHT22;37974;53.218;6.640;2022-08-07T12:35:12;22.60;94.30
51950;DHT22;37974;53.218;6.640;2022-08-07T12:37:40;22.50;94.80
51950;DHT22;37974;53.218;6.640;2022-08-07T12:40:08;22.40;94.70
51950;DHT22;37974;53.218;6.640;2022-08-07T12:42:36;22.20;94.30
51950;DHT22;37974;53.218;6.640;2022-08-07T12:45:13;22.20;95.10
51950;DHT22;37974;53.218;6.640;2022-08-07T12:47:48;22.20;95.90
51950;DHT22;37974;53.218;6.640;2022-08-07T12:50:40;22.20;96.00
51950;DHT22;37974;53.218;6.640;2022-08-07T12:53:17;22.10;96.20
51950;DHT22;37974;53.218;6.640;2022-08-07T12:55:57;22.10;97.80
51950;DHT22;37974;53.218;6.640;2022-08-07T12:58:26;22.00;98.60
51950;DHT22;37974;53.218;6.640;2022-08-07T13:03:30;21.90;99.90
51950;DHT22;37974;53.218;6.640;2022-08-07T13:06:21;21.90;99.90
51950;DHT22;37974;53.218;6.640;2022-08-07T13:09:29;21.90;99.90
51950;DHT22;37974;53.218;6.640;2022-08-07T13:14:45;21.90;99.90
51950;DHT22;37974;53.218;6.640;2022-08-07T13:17:38;21.90;99.90
51950;DHT22;37974;53.218;6.640;2022-08-07T13:20:17;21.90;99.90
51950;DHT22;37974;53.218;6.640;2022-08-07T13:22:51;21.90;99.90
51950;DHT22;37974;53.218;6.640;2022-08-07T13:25:27;22.00;99.90
51950;DHT22;37974;53.218;6.640;2022-08-07T13:28:01;21.90;99.90
51950;DHT22;37974;53.218;6.640;2022-08-07T13:30:27;22.00;99.90
51950;DHT22;37974;53.218;6.640;2022-08-07T13:33:02;22.00;99.90
51950;DHT22;37974;53.218;6.640;2022-08-07T13:35:35;22.00;99.90
51950;DHT22;37974;53.218;6.640;2022-08-07T13:38:16;22.00;99.90
51950;DHT22;37974;53.218;6.640;2022-08-07T13:41:03;22.10;99.90
51950;DHT22;37974;53.218;6.640;2022-08-07T13:43:31;22.30;99.90
51950;DHT22;37974;53.218;6.640;2022-08-07T13:46:00;22.60;99.90
51950;DHT22;37974;53.218;6.640;2022-08-07T13:48:29;22.90;99.90
51950;DHT22;37974;53.218;6.640;2022-08-07T13:50:57;23.00;99.90
51950;DHT22;37974;53.218;6.640;2022-08-07T13:53:29;23.00;99.90
51950;DHT22;37974;53.218;6.640;2022-08-07T13:55:55;23.00;99.90
51950;DHT22;37974;53.218;6.640;2022-08-07T13:58:24;23.10;99.90
51950;DHT22;37974;53.218;6.640;2022-08-07T14:01:12;23.00;99.90
51950;DHT22;37974;53.218;6.640;2022-08-07T14:03:39;23.00;99.90
51950;DHT22;37974;53.218;6.640;2022-08-07T14:06:08;23.10;99.50
51950;DHT22;37974;53.218;6.640;2022-08-07T14:08:42;23.30;99.30
51950;DHT22;37974;53.218;6.640;2022-08-07T14:11:12;23.30;99.70
51950;DHT22;37974;53.218;6.640;2022-08-07T14:13:40;23.40;98.90
51950;DHT22;37974;53.218;6.640;2022-08-07T14:16:15;23.40;97.30
51950;DHT22;37974;53.218;6.640;2022-08-07T14:18:48;23.50;96.60
51950;DHT22;37974;53.218;6.640;2022-08-07T14:21:20;23.60;96.20
51950;DHT22;37974;53.218;6.640;2022-08-07T14:23:58;23.60;95.80
51950;DHT22;37974;53.218;6.640;2022-08-07T14:26:30;23.50;95.20
51950;DHT22;37974;53.218;6.640;2022-08-07T14:28:59;23.50;96.40
51950;DHT22;37974;53.218;6.640;2022-08-07T14:31:25;23.50;96.30
51950;DHT22;37974;53.218;6.640;2022-08-07T14:33:52;23.40;95.80
51950;DHT22;37974;53.218;6.640;2022-08-07T14:36:20;23.50;96.00
51950;DHT22;37974;53.218;6.640;2022-08-07T14:38:47;23.50;96.80
51950;DHT22;37974;53.218;6.640;2022-08-07T14:41:21;23.50;97.10
51950;DHT22;37974;53.218;6.640;2022-08-07T14:43:49;23.50;96.90
51950;DHT22;37974;53.218;6.640;2022-08-07T14:46:18;23.30;95.40
51950;DHT22;37974;53.218;6.640;2022-08-07T14:49:04;23.00;94.60
51950;DHT22;37974;53.218;6.640;2022-08-07T14:51:31;22.60;94.60
51950;DHT22;37974;53.218;6.640;2022-08-07T14:54:01;22.50;95.40
51950;DHT22;37974;53.218;6.640;2022-08-07T14:56:29;22.50;96.40
51950;DHT22;37974;53.218;6.640;2022-08-07T14:59:02;22.50;97.50
51950;DHT22;37974;53.218;6.640;2022-08-07T15:01:38;22.60;97.20
51950;DHT22;37974;53.218;6.640;2022-08-07T15:04:07;22.60;97.30
51950;DHT22;37974;53.218;6.640;2022-08-07T15:06:38;22.60;98.10
51950;DHT22;37974;53.218;6.640;2022-08-07T15:09:13;22.50;98.10
51950;DHT22;37974;53.218;6.640;2022-08-07T15:11:53;22.60;99.10
51950;DHT22;37974;53.218;6.640;2022-08-07T15:14:23;22.70;98.90
51950;DHT22;37974;53.218;6.640;2022-08-07T15:16:57;22.70;99.30
51950;DHT22;37974;53.218;6.640;2022-08-07T15:19:27;22.70;99.50
51950;DHT22;37974;53.218;6.640;2022-08-07T15:21:56;22.70;98.50
51950;DHT22;37974;53.218;6.640;2022-08-07T15:24:30;22.70;97.90
51950;DHT22;37974;53.218;6.640;2022-08-07T15:28:10;22.60;97.70
51950;DHT22;37974;53.218;6.640;2022-08-07T15:30:44;22.30;97.80
51950;DHT22;37974;53.218;6.640;2022-08-07T15:33:37;22.70;98.10
51950;DHT22;37974;53.218;6.640;2022-08-07T15:36:25;22.60;98.40
51950;DHT22;37974;53.218;6.640;2022-08-07T15:39:59;22.30;98.80
51950;DHT22;37974;53.218;6.640;2022-08-07T15:47:35;22.00;99.40
51950;DHT22;37974;53.218;6.640;2022-08-07T15:50:54;21.90;99.70
51950;DHT22;37974;53.218;6.640;2022-08-07T15:53:55;21.90;99.90
51950;DHT22;37974;53.218;6.640;2022-08-07T15:56:31;22.00;99.90
51950;DHT22;37974;53.218;6.640;2022-08-07T15:58:59;22.20;99.90
51950;DHT22;37974;53.218;6.640;2022-08-07T16:01:34;22.50;99.40
51950;DHT22;37974;53.218;6.640;2022-08-07T16:04:26;22.60;97.90
51950;DHT22;37974;53.218;6.640;2022-08-07T16:24:39;22.70;97.60
51950;DHT22;37974;53.218;6.640;2022-08-07T16:27:33;22.60;98.30
51950;DHT22;37974;53.218;6.640;2022-08-07T16:30:37;22.80;97.80
51950;DHT22;37974;53.218;6.640;2022-08-07T16:34:20;23.00;96.90
51950;DHT22;37974;53.218;6.640;2022-08-07T16:36:59;23.30;98.00
51950;DHT22;37974;53.218;6.640;2022-08-07T16:46:28;23.70;97.40
51950;DHT22;37974;53.218;6.640;2022-08-07T16:49:23;23.80;97.30
51950;DHT22;37974;53.218;6.640;2022-08-07T16:54:57;23.80;97.90
51950;DHT22;37974;53.218;6.640;2022-08-07T16:57:47;24.10;98.20
51950;DHT22;37974;53.218;6.640;2022-08-07T17:00:39;24.60;98.70
51950;DHT22;37974;53.218;6.640;2022-08-07T17:03:24;25.20;98.80
51950;DHT22;37974;53.218;6.640;2022-08-07T17:09:25;24.70;97.80
51950;DHT22;37974;53.218;6.640;2022-08-07T17:12:35;23.70;99.10
51950;DHT22;37974;53.218;6.640;2022-08-07T17:18:58;22.40;99.90
51950;DHT22;37974;53.218;6.640;2022-08-07T17:22:06;22.00;99.90
51950;DHT22;37974;53.218;6.640;2022-08-07T17:25:24;21.60;99.90
51950;DHT22;37974;53.218;6.640;2022-08-07T17:28:04;21.30;99.90
51950;DHT22;37974;53.218;6.640;2022-08-07T17:30:55;21.20;99.90
51950;DHT22;37974;53.218;6.640;2022-08-07T17:33:34;21.10;99.90
51950;DHT22;37974;53.218;6.640;2022-08-07T17:39:02;20.90;99.90
51950;DHT22;37974;53.218;6.640;2022-08-07T17:41:50;20.90;99.90
51950;DHT22;37974;53.218;6.640;2022-08-07T17:44:45;21.20;99.90
51950;DHT22;37974;53.218;6.640;2022-08-07T17:47:21;22.10;99.90
51950;DHT22;37974;53.218;6.640;2022-08-07T17:49:57;22.70;99.90
51950;DHT22;37974;53.218;6.640;2022-08-07T17:53:24;23.20;99.90
51950;DHT22;37974;53.218;6.640;2022-08-07T17:56:30;23.30;99.90
51950;DHT22;37974;53.218;6.640;2022-08-07T18:00:01;23.40;99.90
51950;DHT22;37974;53.218;6.640;2022-08-07T18:05:51;23.70;99.90
51950;DHT22;37974;53.218;6.640;2022-08-07T18:08:50;23.60;99.90
51950;DHT22;37974;53.218;6.640;2022-08-07T18:11:43;23.50;99.90
51950;DHT22;37974;53.218;6.640;2022-08-07T18:14:22;23.50;99.90
51950;DHT22;37974;53.218;6.640;2022-08-07T18:17:06;23.20;99.90
51950;DHT22;37974;53.218;6.640;2022-08-07T18:19:52;22.80;99.90
51950;DHT22;37974;53.218;6.640;2022-08-07T18:23:24;22.30;99.90
51950;DHT22;37974;53.218;6.640;2022-08-07T18:26:05;21.90;99.90
51950;DHT22;37974;53.218;6.640;2022-08-07T18:31:58;21.00;99.90
51950;DHT22;37974;53.218;6.640;2022-08-07T18:41:54;20.10;99.90
51950;DHT22;37974;53.218;6.640;2022-08-07T18:44:38;19.80;99.90
51950;DHT22;37974;53.218;6.640;2022-08-07T18:56:44;19.40;99.90
51950;DHT22;37974;53.218;6.640;2022-08-07T19:04:55;19.00;99.90
51950;DHT22;37974;53.218;6.640;2022-08-07T19:07:50;18.80;99.90
51950;DHT22;37974;53.218;6.640;2022-08-07T19:10:38;18.90;99.90
51950;DHT22;37974;53.218;6.640;2022-08-07T19:13:25;18.80;99.90
51950;DHT22;37974;53.218;6.640;2022-08-07T19:16:04;18.60;99.90
51950;DHT22;37974;53.218;6.640;2022-08-07T19:21:28;18.50;99.90
51950;DHT22;37974;53.218;6.640;2022-08-07T19:24:08;18.20;99.90
51950;DHT22;37974;53.218;6.640;2022-08-07T19:26:42;18.30;99.90
51950;DHT22;37974;53.218;6.640;2022-08-07T19:29:23;18.20;99.90
51950;DHT22;37974;53.218;6.640;2022-08-07T19:31:57;18.10;99.90
51950;DHT22;37974;53.218;6.640;2022-08-07T19:34:31;18.00;99.90
51950;DHT22;37974;53.218;6.640;2022-08-07T19:37:00;17.80;99.90
51950;DHT22;37974;53.218;6.640;2022-08-07T19:39:32;17.80;99.90
51950;DHT22;37974;53.218;6.640;2022-08-07T19:42:07;17.60;99.90
51950;DHT22;37974;53.218;6.640;2022-08-07T19:44:36;17.60;99.90
51950;DHT22;37974;53.218;6.640;2022-08-07T19:47:07;17.50;99.90
51950;DHT22;37974;53.218;6.640;2022-08-07T19:49:44;17.40;99.90
51950;DHT22;37974;53.218;6.640;2022-08-07T19:52:20;17.30;99.90
51950;DHT22;37974;53.218;6.640;2022-08-07T19:54:49;17.20;99.90
51950;DHT22;37974;53.218;6.640;2022-08-07T19:57:39;17.20;99.90
51950;DHT22;37974;53.218;6.640;2022-08-07T20:00:18;17.10;99.90
51950;DHT22;37974;53.218;6.640;2022-08-07T20:02:59;17.00;99.90
51950;DHT22;37974;53.218;6.640;2022-08-07T20:05:33;17.10;99.90
51950;DHT22;37974;53.218;6.640;2022-08-07T20:08:01;16.80;99.90
51950;DHT22;37974;53.218;6.640;2022-08-07T20:10:33;16.80;99.90